Time;durP1;ratioP1;P1;durP2;ratioP2;P2;SDS_P1;SDS_P2;PMS_P1;PMS_P2;Temp;Humidity;BMP_temperature;BMP_pressure;BME280_temperature;BME280_humidity;BME280_pressure;Samples;Min_cycle;Max_cycle;Signal;HPM_P1;HPM_P2
2022/12/17 13:06:13;;;;;;;18.70;10.80;;;;;;;;;;4948565;29;20423;-56
2022/12/17 13:08:39;;;;;;;17.60;11.93;;;;;;;;;;4963923;28;20467;-56
2022/12/17 13:11:24;;;;;;;19.70;11.70;;;;;;;;;;4968772;28;20396;-57
2022/12/17 13:13:56;;;;;;;16.63;10.30;;;;;;;;;;4968898;28;20399;-56
2022/12/17 13:16:31;;;;;;;17.57;11.03;;;;;;;;;;4968339;28;20451;-56
2022/12/17 13:19:01;;;;;;;18.27;11.93;;;;;;;;;;4948184;28;20443;-56
2022/12/17 13:21:28;;;;;;;19.03;12.03;;;;;;;;;;4948270;29;20904;-56
2022/12/17 13:23:54;;;;;;;15.83;11.33;;;;;;;;;;4951000;28;20393;-56
2022/12/17 13:26:23;;;;;;;18.80;11.27;;;;;;;;;;4971446;28;20439;-56
2022/12/17 13:28:58;;;;;;;17.33;10.47;;;;;;;;;;4967111;28;20467;-56
2022/12/17 13:31:40;;;;;;;16.17;10.03;;;;;;;;;;4938638;28;20951;-56
2022/12/17 13:34:25;;;;;;;19.40;10.63;;;;;;;;;;4960219;28;20455;-56
2022/12/17 13:37:08;;;;;;;18.47;11.50;;;;;;;;;;4968004;28;20444;-56
2022/12/17 13:39:34;;;;;;;15.80;10.87;;;;;;;;;;4979264;28;20438;-56
2022/12/17 13:42:00;;;;;;;16.77;11.27;;;;;;;;;;4950725;28;20470;-56
2022/12/17 13:44:28;;;;;;;19.33;11.17;;;;;;;;;;4968005;28;20423;-56
2022/12/17 13:46:55;;;;;;;19.37;12.80;;;;;;;;;;4967437;28;20436;-56
2022/12/17 13:49:21;;;;;;;18.10;11.63;;;;;;;;;;4961963;28;20471;-56
2022/12/17 13:51:47;;;;;;;15.73;10.20;;;;;;;;;;4964017;28;20796;-56
2022/12/17 13:54:18;;;;;;;18.90;11.07;;;;;;;;;;4966441;28;20765;-56
2022/12/17 13:56:44;;;;;;;17.83;11.77;;;;;;;;;;4945791;28;20980;-56
2022/12/17 13:59:19;;;;;;;19.43;12.47;;;;;;;;;;4964447;28;20427;-57
2022/12/17 14:01:49;;;;;;;16.83;11.73;;;;;;;;;;4967036;28;21140;-56
2022/12/17 14:04:21;;;;;;;15.80;11.50;;;;;;;;;;4965298;28;20397;-56
2022/12/17 14:06:47;;;;;;;17.57;11.27;;;;;;;;;;4940264;28;20427;-56
2022/12/17 14:09:17;;;;;;;21.63;12.70;;;;;;;;;;4968608;28;20864;-56
2022/12/17 14:14:39;;;;;;;18.20;11.93;;;;;;;;;;4967539;28;20410;-56
2022/12/17 14:17:05;;;;;;;16.53;11.17;;;;;;;;;;4965515;28;20517;-57
2022/12/17 14:19:32;;;;;;;16.27;11.10;;;;;;;;;;4967785;28;20419;-56
2022/12/17 14:21:58;;;;;;;19.90;12.07;;;;;;;;;;4965481;28;20994;-56
2022/12/17 14:24:27;;;;;;;15.17;10.30;;;;;;;;;;4966685;28;20536;-56
2022/12/17 14:26:55;;;;;;;14.20;10.23;;;;;;;;;;4961151;28;20439;-56
2022/12/17 14:29:22;;;;;;;18.63;12.30;;;;;;;;;;4967463;28;20455;-56
2022/12/17 14:31:52;;;;;;;16.40;11.17;;;;;;;;;;4966545;28;20922;-56
2022/12/17 14:34:18;;;;;;;14.43;10.70;;;;;;;;;;4961147;28;20431;-56
2022/12/17 14:36:45;;;;;;;15.23;10.73;;;;;;;;;;4954290;28;21027;-56
2022/12/17 14:39:16;;;;;;;16.30;11.67;;;;;;;;;;4964186;28;20976;-56
2022/12/17 14:44:28;;;;;;;16.00;11.20;;;;;;;;;;4957013;28;21017;-56
2022/12/17 14:47:06;;;;;;;14.77;9.87;;;;;;;;;;4960977;28;20526;-56
2022/12/17 14:49:32;;;;;;;17.27;10.97;;;;;;;;;;4960386;28;20434;-56
2022/12/17 14:52:00;;;;;;;13.00;10.37;;;;;;;;;;4960807;28;20934;-56
2022/12/17 14:54:28;;;;;;;16.40;11.63;;;;;;;;;;4959028;28;20431;-56
2022/12/17 14:56:55;;;;;;;17.07;11.50;;;;;;;;;;4960635;28;20523;-56
2022/12/17 14:59:22;;;;;;;20.50;13.30;;;;;;;;;;4960528;28;20432;-56
2022/12/17 15:01:48;;;;;;;14.03;11.00;;;;;;;;;;4956634;28;20962;-56
2022/12/17 15:04:16;;;;;;;16.90;10.83;;;;;;;;;;4963964;28;20427;-56
2022/12/17 15:06:42;;;;;;;15.87;10.47;;;;;;;;;;4957943;28;20506;-56
2022/12/17 15:09:10;;;;;;;13.30;10.30;;;;;;;;;;4959577;28;20974;-56
2022/12/17 15:11:36;;;;;;;16.73;9.90;;;;;;;;;;4957413;28;21006;-56
2022/12/17 15:14:02;;;;;;;16.00;10.70;;;;;;;;;;4959367;28;20435;-56
2022/12/17 15:16:28;;;;;;;16.10;10.40;;;;;;;;;;4958793;28;20431;-56
2022/12/17 15:18:54;;;;;;;13.23;9.93;;;;;;;;;;4960399;28;20462;-56
2022/12/17 15:21:21;;;;;;;15.90;10.67;;;;;;;;;;4960184;28;20486;-56
2022/12/17 15:23:48;;;;;;;16.27;11.77;;;;;;;;;;4963647;28;20442;-56
2022/12/17 15:26:14;;;;;;;14.70;10.83;;;;;;;;;;4962782;28;20491;-56
2022/12/17 15:28:40;;;;;;;15.37;10.90;;;;;;;;;;4953278;28;20466;-56
2022/12/17 15:31:08;;;;;;;14.03;10.20;;;;;;;;;;4961756;28;20431;-56
2022/12/17 15:33:34;;;;;;;15.93;11.30;;;;;;;;;;4957298;28;20523;-56
2022/12/17 15:36:00;;;;;;;13.90;9.83;;;;;;;;;;4951708;28;20428;-56
2022/12/17 15:38:26;;;;;;;15.10;11.40;;;;;;;;;;4959219;28;20555;-56
2022/12/17 15:40:52;;;;;;;16.37;10.97;;;;;;;;;;4957738;28;20889;-56
2022/12/17 15:43:18;;;;;;;16.23;10.17;;;;;;;;;;4954814;28;20428;-56
2022/12/17 15:45:48;;;;;;;15.40;10.83;;;;;;;;;;4959470;28;20498;-56
2022/12/17 15:48:16;;;;;;;15.70;12.13;;;;;;;;;;4964466;28;20494;-56
2022/12/17 15:50:42;;;;;;;15.33;10.27;;;;;;;;;;4954337;28;20470;-56
2022/12/17 15:53:08;;;;;;;17.83;11.13;;;;;;;;;;4958877;28;20505;-56
2022/12/17 15:55:34;;;;;;;13.50;10.23;;;;;;;;;;4963860;28;20772;-56
2022/12/17 15:58:00;;;;;;;14.83;11.03;;;;;;;;;;4962804;28;20433;-56
2022/12/17 16:00:26;;;;;;;16.50;10.57;;;;;;;;;;4963136;28;21257;-56
2022/12/17 16:02:52;;;;;;;16.57;11.83;;;;;;;;;;4961824;28;20451;-56
2022/12/17 16:05:19;;;;;;;14.97;11.07;;;;;;;;;;4960133;28;20450;-56
2022/12/17 16:07:46;;;;;;;16.40;11.03;;;;;;;;;;4960125;28;20997;-56
2022/12/17 16:10:12;;;;;;;16.77;10.67;;;;;;;;;;4960868;28;20426;-56
2022/12/17 16:12:38;;;;;;;15.87;10.90;;;;;;;;;;4961241;28;20862;-56
2022/12/17 16:15:05;;;;;;;15.00;11.17;;;;;;;;;;4966432;28;20446;-56
2022/12/17 16:17:31;;;;;;;14.53;10.93;;;;;;;;;;4963043;28;20533;-56
2022/12/17 16:19:57;;;;;;;15.27;10.50;;;;;;;;;;4964201;28;20433;-56
2022/12/17 16:22:23;;;;;;;13.47;9.87;;;;;;;;;;4962140;28;20471;-55
2022/12/17 16:24:51;;;;;;;17.00;10.63;;;;;;;;;;4964246;28;20474;-56
2022/12/17 16:27:17;;;;;;;14.57;9.67;;;;;;;;;;4964310;28;20935;-56
2022/12/17 16:29:45;;;;;;;14.33;10.80;;;;;;;;;;4967877;28;20920;-56
2022/12/17 16:32:11;;;;;;;19.03;10.43;;;;;;;;;;4968778;28;20431;-56
2022/12/17 16:34:40;;;;;;;16.80;10.43;;;;;;;;;;4969244;28;20454;-56
2022/12/17 16:37:07;;;;;;;15.33;9.87;;;;;;;;;;4965556;28;20439;-56
2022/12/17 16:39:33;;;;;;;17.27;11.40;;;;;;;;;;4965449;28;20419;-56
2022/12/17 16:41:59;;;;;;;14.57;10.43;;;;;;;;;;4977678;28;20485;-57
2022/12/17 16:44:25;;;;;;;14.53;10.60;;;;;;;;;;4968333;28;20441;-56
2022/12/17 16:46:51;;;;;;;15.47;10.53;;;;;;;;;;4961875;28;20440;-56
2022/12/17 16:49:22;;;;;;;15.93;10.73;;;;;;;;;;4972318;28;20474;-56
2022/12/17 16:51:55;;;;;;;14.47;10.47;;;;;;;;;;4972073;28;20891;-56
2022/12/17 16:54:22;;;;;;;14.43;10.40;;;;;;;;;;4973681;28;20450;-57
2022/12/17 16:56:49;;;;;;;16.93;11.17;;;;;;;;;;4973303;28;20421;-56
2022/12/17 16:59:15;;;;;;;17.83;10.23;;;;;;;;;;4973685;28;20400;-56
2022/12/17 17:01:43;;;;;;;17.50;10.60;;;;;;;;;;4952972;28;20802;-56
2022/12/17 17:04:10;;;;;;;14.57;10.87;;;;;;;;;;4974347;28;21027;-56
2022/12/17 17:06:40;;;;;;;18.10;11.50;;;;;;;;;;4970350;28;20427;-56
2022/12/17 17:09:07;;;;;;;15.83;11.10;;;;;;;;;;4973795;28;20451;-56
2022/12/17 17:11:33;;;;;;;15.73;11.17;;;;;;;;;;4946712;28;20438;-56
2022/12/17 17:13:59;;;;;;;17.30;12.23;;;;;;;;;;4967388;28;20494;-56
2022/12/17 17:16:26;;;;;;;19.50;11.87;;;;;;;;;;4969380;28;21001;-56
2022/12/17 17:18:52;;;;;;;16.17;10.87;;;;;;;;;;4969686;28;20490;-56
2022/12/17 17:21:18;;;;;;;14.33;11.27;;;;;;;;;;4959483;28;20447;-56
2022/12/17 17:23:45;;;;;;;17.13;12.47;;;;;;;;;;4959945;28;20442;-56
2022/12/17 17:26:11;;;;;;;16.40;10.50;;;;;;;;;;4961853;28;20784;-56
2022/12/17 17:28:37;;;;;;;15.67;11.73;;;;;;;;;;4962337;28;20996;-55
2022/12/17 17:31:05;;;;;;;16.10;11.87;;;;;;;;;;4965813;28;20435;-56
2022/12/17 17:33:32;;;;;;;15.73;11.03;;;;;;;;;;4970957;28;20442;-55
2022/12/17 17:36:04;;;;;;;16.60;10.90;;;;;;;;;;4964635;28;20431;-56
2022/12/17 17:38:33;;;;;;;16.87;11.37;;;;;;;;;;4965225;28;20448;-56
2022/12/17 17:40:59;;;;;;;16.83;11.00;;;;;;;;;;4965871;28;20994;-56
2022/12/17 17:43:25;;;;;;;17.23;11.23;;;;;;;;;;4966208;28;20443;-55
2022/12/17 17:45:52;;;;;;;14.37;10.37;;;;;;;;;;4967184;28;20539;-55
2022/12/17 17:48:18;;;;;;;16.80;10.97;;;;;;;;;;4964432;28;20843;-59
2022/12/17 17:50:44;;;;;;;18.60;14.37;;;;;;;;;;4966144;28;20433;-56
2022/12/17 17:53:10;;;;;;;16.33;11.47;;;;;;;;;;4965429;28;20188;-56
2022/12/17 17:55:36;;;;;;;16.40;11.27;;;;;;;;;;4953208;28;20451;-56
2022/12/17 17:58:02;;;;;;;16.80;11.83;;;;;;;;;;4963053;28;20439;-56
2022/12/17 18:00:28;;;;;;;14.67;10.80;;;;;;;;;;4966433;28;21023;-55
2022/12/17 18:02:54;;;;;;;15.40;10.93;;;;;;;;;;4965403;28;20443;-56
2022/12/17 18:05:20;;;;;;;14.40;10.73;;;;;;;;;;4966940;28;20438;-56
2022/12/17 18:07:46;;;;;;;16.83;11.93;;;;;;;;;;4962799;28;20574;-56
2022/12/17 18:10:12;;;;;;;14.60;10.47;;;;;;;;;;4965292;28;20494;-56
2022/12/17 18:15:23;;;;;;;15.00;11.30;;;;;;;;;;4964853;28;20419;-56
2022/12/17 18:17:57;;;;;;;18.67;12.20;;;;;;;;;;4965118;28;20463;-56
2022/12/17 18:20:23;;;;;;;15.40;10.93;;;;;;;;;;4965357;28;20865;-56
2022/12/17 18:22:49;;;;;;;14.27;10.27;;;;;;;;;;4964336;28;20454;-56
2022/12/17 18:25:16;;;;;;;15.87;10.70;;;;;;;;;;4968216;28;20502;-56
2022/12/17 18:27:42;;;;;;;15.87;11.23;;;;;;;;;;4966062;28;20485;-56
2022/12/17 18:30:08;;;;;;;16.47;11.70;;;;;;;;;;4967128;28;20909;-56
2022/12/17 18:32:35;;;;;;;17.00;10.87;;;;;;;;;;4965185;28;20902;-56
2022/12/17 18:35:01;;;;;;;14.17;11.17;;;;;;;;;;4965821;28;21146;-56
2022/12/17 18:37:27;;;;;;;15.43;10.63;;;;;;;;;;4963220;28;20439;-56
2022/12/17 18:39:53;;;;;;;14.40;10.93;;;;;;;;;;4967220;28;20392;-56
2022/12/17 18:45:04;;;;;;;13.37;10.90;;;;;;;;;;4965944;28;20454;-56
2022/12/17 18:47:30;;;;;;;15.43;10.80;;;;;;;;;;4963514;28;20462;-55
2022/12/17 18:49:56;;;;;;;17.30;10.77;;;;;;;;;;4957199;28;20940;-56
2022/12/17 18:52:22;;;;;;;14.23;10.23;;;;;;;;;;4965557;28;20638;-56
2022/12/17 18:54:48;;;;;;;16.07;11.53;;;;;;;;;;4966600;28;20434;-56
2022/12/17 18:57:14;;;;;;;16.57;11.00;;;;;;;;;;4964096;28;20436;-56
2022/12/17 18:59:43;;;;;;;15.83;10.33;;;;;;;;;;4965407;28;20442;-56
2022/12/17 19:02:11;;;;;;;15.73;11.00;;;;;;;;;;4957871;28;20787;-56
2022/12/17 19:04:37;;;;;;;16.00;10.30;;;;;;;;;;4964556;28;20938;-56
2022/12/17 19:07:03;;;;;;;14.33;10.63;;;;;;;;;;4964537;28;20459;-56
2022/12/17 19:09:33;;;;;;;15.03;11.00;;;;;;;;;;4972762;28;20510;-56
2022/12/17 19:11:59;;;;;;;16.83;11.97;;;;;;;;;;4966095;28;20960;-56
2022/12/17 19:14:25;;;;;;;14.53;10.13;;;;;;;;;;4967037;28;20506;-56
2022/12/17 19:16:52;;;;;;;13.33;9.90;;;;;;;;;;4967170;28;20392;-56
2022/12/17 19:19:18;;;;;;;14.77;10.97;;;;;;;;;;4956597;28;20459;-56
2022/12/17 19:21:45;;;;;;;18.10;10.50;;;;;;;;;;4966222;28;20430;-56
2022/12/17 19:24:15;;;;;;;17.63;10.93;;;;;;;;;;4965755;28;20941;-55
2022/12/17 19:26:42;;;;;;;15.77;11.60;;;;;;;;;;4961886;28;20486;-55
2022/12/17 19:29:09;;;;;;;13.53;10.63;;;;;;;;;;4964228;28;20493;-56
2022/12/17 19:31:35;;;;;;;16.53;11.47;;;;;;;;;;4966213;28;20796;-56
2022/12/17 19:34:03;;;;;;;13.37;10.50;;;;;;;;;;4966442;28;20490;-56
2022/12/17 19:36:30;;;;;;;15.57;10.50;;;;;;;;;;4966079;28;20473;-56
2022/12/17 19:39:00;;;;;;;14.23;10.70;;;;;;;;;;4965786;28;20412;-56
2022/12/17 19:41:26;;;;;;;13.87;11.00;;;;;;;;;;4966359;28;20685;-56
2022/12/17 19:43:57;;;;;;;14.50;10.93;;;;;;;;;;4969180;28;20411;-56
2022/12/17 19:46:23;;;;;;;16.43;11.00;;;;;;;;;;4970268;28;20415;-56
2022/12/17 19:48:50;;;;;;;12.73;9.83;;;;;;;;;;4971082;28;20604;-56
2022/12/17 19:51:17;;;;;;;14.30;10.63;;;;;;;;;;4988431;28;20783;-56
2022/12/17 19:53:44;;;;;;;19.07;12.30;;;;;;;;;;4989942;28;20933;-55
2022/12/17 19:56:15;;;;;;;16.00;11.23;;;;;;;;;;4984132;28;20463;-56
2022/12/17 19:58:42;;;;;;;15.70;10.93;;;;;;;;;;4965335;28;20442;-56
2022/12/17 20:01:15;;;;;;;16.80;11.47;;;;;;;;;;4966173;28;20435;-56
2022/12/17 20:03:42;;;;;;;14.47;11.37;;;;;;;;;;4948651;28;20708;-56
2022/12/17 20:06:09;;;;;;;17.37;11.97;;;;;;;;;;4965450;28;20503;-55
2022/12/17 20:08:35;;;;;;;15.83;11.60;;;;;;;;;;4952068;28;20941;-56
2022/12/17 20:11:03;;;;;;;17.10;11.60;;;;;;;;;;4952272;28;20510;-56
2022/12/17 20:13:29;;;;;;;13.97;10.80;;;;;;;;;;4969080;28;20446;-56
2022/12/17 20:16:05;;;;;;;17.33;11.83;;;;;;;;;;4973459;28;20585;-56
2022/12/17 20:18:31;;;;;;;15.03;11.70;;;;;;;;;;4969087;28;20512;-56
2022/12/17 20:21:03;;;;;;;17.97;12.10;;;;;;;;;;4969087;28;20861;-56
2022/12/17 20:23:29;;;;;;;15.47;11.07;;;;;;;;;;4968925;28;20788;-56
2022/12/17 20:26:06;;;;;;;19.00;11.30;;;;;;;;;;4970785;28;21008;-56
2022/12/17 20:28:33;;;;;;;17.50;11.47;;;;;;;;;;4970301;28;20458;-56
2022/12/17 20:30:59;;;;;;;16.13;11.23;;;;;;;;;;4977738;28;20423;-56
2022/12/17 20:33:25;;;;;;;13.27;10.77;;;;;;;;;;4975973;28;20962;-55
2022/12/17 20:35:52;;;;;;;16.47;12.10;;;;;;;;;;4983395;28;20415;-55
2022/12/17 20:38:18;;;;;;;17.33;12.07;;;;;;;;;;4949225;28;20446;-56
2022/12/17 20:40:44;;;;;;;16.80;11.07;;;;;;;;;;4969183;28;20443;-56
2022/12/17 20:43:10;;;;;;;17.53;11.30;;;;;;;;;;4968822;28;20471;-55
2022/12/17 20:45:36;;;;;;;14.47;10.70;;;;;;;;;;4969505;28;20621;-55
2022/12/17 20:48:02;;;;;;;18.27;12.63;;;;;;;;;;4962284;28;20867;-56
2022/12/17 20:50:28;;;;;;;17.93;11.40;;;;;;;;;;4969744;28;20539;-56
2022/12/17 20:52:57;;;;;;;16.13;11.30;;;;;;;;;;4967974;28;20745;-55
2022/12/17 20:55:23;;;;;;;14.33;10.43;;;;;;;;;;4968025;28;20438;-56
2022/12/17 20:57:49;;;;;;;16.43;11.43;;;;;;;;;;4968702;28;20530;-56
2022/12/17 21:00:17;;;;;;;15.83;11.80;;;;;;;;;;4967954;28;20427;-56
2022/12/17 21:02:44;;;;;;;15.63;11.60;;;;;;;;;;4969522;28;20760;-56
2022/12/17 21:05:10;;;;;;;16.83;11.03;;;;;;;;;;4952061;28;20431;-56
2022/12/17 21:07:37;;;;;;;13.20;10.53;;;;;;;;;;4951926;28;21000;-56
2022/12/17 21:10:03;;;;;;;15.67;11.83;;;;;;;;;;4987165;28;20407;-56
2022/12/17 21:13:27;;;;;;;21.77;12.80;;;;;;;;;;4982760;28;20862;-55
2022/12/17 21:15:15;;;;;;;17.07;11.90;;;;;;;;;;4967823;28;21005;-55
2022/12/17 21:17:41;;;;;;;14.80;11.50;;;;;;;;;;4963314;28;20451;-56
2022/12/17 21:20:07;;;;;;;15.07;11.43;;;;;;;;;;4966512;28;20447;-55
2022/12/17 21:22:34;;;;;;;16.40;11.47;;;;;;;;;;4966623;28;20899;-56
2022/12/17 21:25:00;;;;;;;18.83;12.30;;;;;;;;;;4952730;28;20432;-56
2022/12/17 21:27:26;;;;;;;16.30;10.77;;;;;;;;;;4950247;28;20388;-55
2022/12/17 21:29:52;;;;;;;14.90;10.70;;;;;;;;;;4968655;28;20407;-55
2022/12/17 21:32:18;;;;;;;17.47;11.03;;;;;;;;;;4967221;28;20439;-55
2022/12/17 21:34:44;;;;;;;14.90;11.83;;;;;;;;;;4968831;28;20451;-55
2022/12/17 21:37:10;;;;;;;16.40;11.87;;;;;;;;;;4966454;28;20472;-55
2022/12/17 21:39:36;;;;;;;16.37;11.17;;;;;;;;;;4967954;28;20422;-56
2022/12/17 21:44:47;;;;;;;17.70;11.87;;;;;;;;;;4967938;28;21065;-55
2022/12/17 21:47:13;;;;;;;15.80;10.20;;;;;;;;;;4968421;28;20512;-56
2022/12/17 21:49:39;;;;;;;14.97;10.50;;;;;;;;;;4968385;28;20487;-56
2022/12/17 21:52:05;;;;;;;14.97;10.30;;;;;;;;;;4966130;28;20470;-56
2022/12/17 21:54:31;;;;;;;18.67;11.10;;;;;;;;;;4961183;28;20859;-56
2022/12/17 21:56:57;;;;;;;13.50;10.27;;;;;;;;;;4973418;28;20418;-56
2022/12/17 21:59:23;;;;;;;16.07;12.13;;;;;;;;;;4974153;28;20443;-55
2022/12/17 22:01:50;;;;;;;16.17;11.17;;;;;;;;;;4967907;28;20394;-56
2022/12/17 22:04:16;;;;;;;11.70;9.37;;;;;;;;;;4968009;28;20434;-55
2022/12/17 22:06:42;;;;;;;13.87;10.90;;;;;;;;;;4957274;28;20451;-55
2022/12/17 22:09:09;;;;;;;17.03;11.40;;;;;;;;;;4948874;29;20456;-56
2022/12/17 22:11:35;;;;;;;12.37;9.17;;;;;;;;;;4952170;28;20443;-55
2022/12/17 22:14:01;;;;;;;16.97;10.33;;;;;;;;;;4963493;28;20785;-55
2022/12/17 22:16:31;;;;;;;13.33;9.63;;;;;;;;;;4980440;28;20398;-55
2022/12/17 22:18:57;;;;;;;13.70;9.43;;;;;;;;;;4965884;28;20454;-55
2022/12/17 22:21:23;;;;;;;13.03;9.80;;;;;;;;;;4963153;28;20923;-55
2022/12/17 22:23:50;;;;;;;14.77;9.70;;;;;;;;;;4958346;28;20435;-55
2022/12/17 22:26:17;;;;;;;14.00;9.97;;;;;;;;;;4949000;28;20482;-55
2022/12/17 22:28:49;;;;;;;13.53;9.83;;;;;;;;;;4966906;28;20993;-55
2022/12/17 22:34:02;;;;;;;13.23;9.17;;;;;;;;;;4967184;28;20489;-55
2022/12/17 22:36:28;;;;;;;12.67;8.63;;;;;;;;;;4949078;28;20423;-55
2022/12/17 22:38:55;;;;;;;10.47;8.03;;;;;;;;;;4967290;28;20384;-56
2022/12/17 22:44:06;;;;;;;11.37;8.10;;;;;;;;;;4966433;28;20501;-56
2022/12/17 22:46:32;;;;;;;11.83;8.47;;;;;;;;;;4944841;28;20486;-56
2022/12/17 22:48:58;;;;;;;12.73;8.60;;;;;;;;;;4965179;28;20909;-56
2022/12/17 22:51:25;;;;;;;11.20;8.03;;;;;;;;;;4965483;28;20435;-55
2022/12/17 22:53:52;;;;;;;9.07;7.00;;;;;;;;;;4966399;28;20446;-55
2022/12/17 22:56:18;;;;;;;10.63;7.30;;;;;;;;;;4963749;28;20977;-56
2022/12/17 22:58:44;;;;;;;9.57;7.27;;;;;;;;;;4964718;28;20445;-56
2022/12/17 23:01:11;;;;;;;10.67;7.43;;;;;;;;;;4964748;28;20469;-55
2022/12/17 23:03:37;;;;;;;10.60;7.20;;;;;;;;;;4964448;28;20454;-55
2022/12/17 23:06:11;;;;;;;9.13;6.77;;;;;;;;;;4964985;28;20450;-56
2022/12/17 23:08:37;;;;;;;11.33;7.47;;;;;;;;;;4963986;28;20459;-56
2022/12/17 23:11:07;;;;;;;10.10;7.40;;;;;;;;;;4965621;28;20423;-56
2022/12/17 23:13:33;;;;;;;10.37;7.40;;;;;;;;;;4965971;28;20438;-55
2022/12/17 23:16:00;;;;;;;8.47;6.07;;;;;;;;;;4964857;28;20463;-55
2022/12/17 23:18:26;;;;;;;12.13;7.33;;;;;;;;;;4966190;28;20454;-55
2022/12/17 23:20:52;;;;;;;8.90;6.80;;;;;;;;;;4970627;28;20434;-56
2022/12/17 23:23:18;;;;;;;12.60;7.97;;;;;;;;;;4966460;28;20874;-55
2022/12/17 23:25:44;;;;;;;9.93;6.43;;;;;;;;;;4970772;28;20825;-56
2022/12/17 23:28:10;;;;;;;9.40;6.63;;;;;;;;;;4969026;28;20467;-55
2022/12/17 23:30:37;;;;;;;9.93;6.63;;;;;;;;;;4950505;28;20448;-56
2022/12/17 23:33:03;;;;;;;10.63;7.60;;;;;;;;;;4955420;28;20951;-56
2022/12/17 23:35:29;;;;;;;9.90;7.43;;;;;;;;;;4969307;28;20439;-56
2022/12/17 23:37:55;;;;;;;9.00;6.20;;;;;;;;;;4965739;28;20957;-55
2022/12/17 23:40:22;;;;;;;7.63;6.77;;;;;;;;;;4969772;28;20877;-56
2022/12/17 23:42:48;;;;;;;7.80;5.63;;;;;;;;;;4967677;28;20437;-56
2022/12/17 23:45:14;;;;;;;9.67;6.33;;;;;;;;;;4970710;28;20447;-56
2022/12/17 23:47:40;;;;;;;10.43;6.97;;;;;;;;;;4950864;28;20784;-56
2022/12/17 23:50:07;;;;;;;8.50;5.80;;;;;;;;;;4969725;28;20498;-55
2022/12/17 23:52:33;;;;;;;8.97;6.70;;;;;;;;;;4966625;28;20929;-56
2022/12/17 23:54:59;;;;;;;8.67;6.80;;;;;;;;;;4969060;28;20792;-56
2022/12/17 23:57:25;;;;;;;9.67;6.17;;;;;;;;;;4968779;28;20934;-56
2022/12/17 23:59:51;;;;;;;9.10;7.17;;;;;;;;;;4957377;28;20444;-55
